Time;durP1;ratioP1;P1;durP2;ratioP2;P2;SDS_P1;SDS_P2;PMS_P1;PMS_P2;Temp;Humidity;BMP_temperature;BMP_pressure;BME280_temperature;BME280_humidity;BME280_pressure;Samples;Min_cycle;Max_cycle;Signal;HPM_P1;HPM_P2
2022/09/18 00:01:30;;;;;;;8.10;1.50;;;;;;;9.86;nan;98154.34;5036088;28;20222;-70
2022/09/18 00:03:58;;;;;;;5.27;1.20;;;;;;;9.90;nan;98152.88;5036220;28;20229;-70
2022/09/18 00:06:31;;;;;;;5.30;1.30;;;;;;;9.83;nan;98142.28;5036158;28;20216;-70
2022/09/18 00:08:59;;;;;;;6.03;1.17;;;;;;;9.85;nan;98147.38;5036230;28;20190;-70
2022/09/18 00:11:29;;;;;;;4.77;1.40;;;;;;;9.82;nan;98158.44;5036052;28;20265;-70
2022/09/18 00:13:56;;;;;;;5.13;1.20;;;;;;;9.81;nan;98147.00;5036024;28;20228;-70
2022/09/18 00:16:25;;;;;;;5.27;1.30;;;;;;;9.75;nan;98139.06;5035761;28;20296;-70
2022/09/18 00:18:51;;;;;;;3.37;1.10;;;;;;;9.79;nan;98142.94;5035652;28;20213;-70
2022/09/18 00:21:20;;;;;;;4.33;1.03;;;;;;;9.76;nan;98140.69;5036627;28;20233;-70
2022/09/18 00:23:47;;;;;;;3.60;1.00;;;;;;;9.78;nan;98151.94;5034958;28;20225;-70
2022/09/18 00:26:16;;;;;;;2.93;1.30;;;;;;;9.76;nan;98157.44;5035442;28;20206;-70
2022/09/18 00:28:42;;;;;;;3.53;1.27;;;;;;;9.78;nan;98149.28;5035806;28;20202;-70
2022/09/18 00:31:18;;;;;;;6.13;1.37;;;;;;;9.75;nan;98155.00;5035521;28;20272;-70
2022/09/18 00:33:45;;;;;;;4.97;1.33;;;;;;;9.79;nan;98150.91;5035725;28;20206;-71
2022/09/18 00:36:16;;;;;;;3.40;1.13;;;;;;;9.74;nan;98154.16;5035668;28;20205;-70
2022/09/18 00:38:43;;;;;;;4.63;1.07;;;;;;;9.77;nan;98158.28;5035625;28;20202;-70
2022/09/18 00:41:14;;;;;;;4.27;1.00;;;;;;;9.74;nan;98154.16;5035449;28;20234;-70
2022/09/18 00:43:41;;;;;;;6.63;1.37;;;;;;;9.79;nan;98158.88;5035180;28;20301;-70
2022/09/18 00:46:28;;;;;;;5.50;1.13;;;;;;;9.79;nan;98156.22;5035518;28;20202;-70
2022/09/18 00:49:22;;;;;;;5.23;1.43;;;;;;;9.78;nan;98155.38;5035448;28;20197;-70
2022/09/18 00:51:51;;;;;;;2.77;1.10;;;;;;;9.79;nan;98158.88;5035410;28;20188;-70
2022/09/18 00:54:28;;;;;;;5.27;1.57;;;;;;;9.79;nan;98153.56;5035264;28;20297;-70
2022/09/18 00:56:59;;;;;;;4.67;1.20;;;;;;;9.70;nan;98153.00;5035037;28;20652;-70
2022/09/18 00:59:29;;;;;;;5.37;1.40;;;;;;;9.71;nan;98151.13;5035105;28;20237;-70
2022/09/18 01:01:57;;;;;;;3.40;1.27;;;;;;;9.71;nan;98153.78;5035429;28;20191;-70
2022/09/18 01:04:24;;;;;;;5.80;1.40;;;;;;;9.78;nan;98162.53;5035007;28;20233;-70
2022/09/18 01:06:53;;;;;;;4.60;1.40;;;;;;;9.78;nan;98147.41;5034831;28;20206;-70
2022/09/18 01:09:43;;;;;;;5.80;1.57;;;;;;;9.76;nan;98159.28;5034988;28;20262;-70
2022/09/18 01:12:48;;;;;;;4.10;1.63;;;;;;;9.80;nan;98157.81;5035472;28;20191;-70
2022/09/18 01:15:33;;;;;;;3.70;1.40;;;;;;;9.81;nan;98162.09;5023448;28;20201;-70
2022/09/18 01:18:37;;;;;;;5.40;1.30;;;;;;;9.76;nan;98160.09;5034817;28;20667;-70
2022/09/18 01:21:09;;;;;;;3.70;1.00;;;;;;;9.75;nan;98161.13;5034723;28;20221;-70
2022/09/18 01:24:06;;;;;;;3.87;1.53;;;;;;;9.78;nan;98160.69;5034728;28;20309;-70
2022/09/18 01:26:47;;;;;;;3.57;1.20;;;;;;;9.79;nan;98159.69;5034716;28;20240;-71
2022/09/18 01:29:26;;;;;;;2.57;1.10;;;;;;;9.84;nan;98165.19;5034489;28;20205;-70
2022/09/18 01:32:12;;;;;;;3.47;1.13;;;;;;;9.80;nan;98163.97;5034610;28;20190;-70
2022/09/18 01:34:44;;;;;;;3.70;1.20;;;;;;;9.82;nan;98166.41;5034414;28;20196;-70
2022/09/18 01:37:21;;;;;;;6.40;1.30;;;;;;;9.75;nan;98170.94;5033406;28;20190;-70
2022/09/18 01:39:56;;;;;;;3.67;1.10;;;;;;;9.73;nan;98159.72;5034518;28;20229;-70
2022/09/18 01:42:26;;;;;;;2.23;0.90;;;;;;;9.70;nan;98168.09;5034263;28;20194;-71
2022/09/18 01:44:55;;;;;;;2.87;1.07;;;;;;;9.77;nan;98151.09;5018131;28;20570;-70
2022/09/18 01:47:27;;;;;;;3.10;1.20;;;;;;;9.77;nan;98151.09;5034127;28;20219;-70
2022/09/18 01:49:58;;;;;;;2.17;1.17;;;;;;;9.75;nan;98144.38;5034232;28;20267;-70
2022/09/18 01:52:49;;;;;;;5.67;1.37;;;;;;;9.67;nan;98142.78;5033034;28;20196;-71
2022/09/18 01:55:21;;;;;;;4.50;1.00;;;;;;;9.66;nan;98148.28;5034234;28;20220;-71
2022/09/18 01:58:01;;;;;;;5.40;1.00;;;;;;;9.58;nan;98144.03;5032946;28;20190;-71
2022/09/18 02:00:29;;;;;;;7.23;1.17;;;;;;;9.62;nan;98145.25;5033687;28;20724;-70
2022/09/18 02:03:27;;;;;;;2.87;1.00;;;;;;;9.62;nan;98136.47;5033993;28;20225;-70
2022/09/18 02:06:27;;;;;;;1.70;0.80;;;;;;;9.62;nan;98137.28;5032459;28;20664;-71
2022/09/18 02:08:56;;;;;;;4.50;1.20;;;;;;;9.62;nan;98134.63;5032158;28;20291;-70
2022/09/18 02:11:24;;;;;;;4.57;1.00;;;;;;;9.56;nan;98127.50;5032616;28;20240;-70
2022/09/18 02:14:19;;;;;;;2.90;1.03;;;;;;;9.58;nan;98129.94;5033813;28;20204;-71
2022/09/18 02:16:49;;;;;;;2.30;0.80;;;;;;;9.56;nan;98130.16;5033523;28;20581;-70
2022/09/18 02:19:28;;;;;;;4.27;1.30;;;;;;;9.56;nan;98130.16;5016579;28;20313;-71
2022/09/18 02:21:57;;;;;;;4.70;1.27;;;;;;;9.64;nan;98126.47;5033465;28;20633;-70
2022/09/18 02:24:28;;;;;;;3.13;0.90;;;;;;;9.66;nan;98129.72;5033854;28;20229;-70
2022/09/18 02:26:56;;;;;;;3.47;1.00;;;;;;;9.66;nan;98133.19;5033415;28;20540;-70
2022/09/18 02:29:24;;;;;;;6.53;1.13;;;;;;;9.62;nan;98125.84;5033493;28;20234;-70
2022/09/18 02:31:51;;;;;;;2.27;1.07;;;;;;;9.66;nan;98132.38;5033362;28;20633;-70
2022/09/18 02:34:19;;;;;;;3.00;0.90;;;;;;;9.66;nan;98124.41;5033611;28;20212;-70
2022/09/18 02:37:04;;;;;;;2.87;1.10;;;;;;;9.66;nan;98129.72;5033134;28;20209;-70
2022/09/18 02:40:03;;;;;;;2.67;0.87;;;;;;;9.65;nan;98131.53;5033518;28;20247;-70
2022/09/18 02:42:48;;;;;;;4.43;1.10;;;;;;;9.66;nan;98119.91;5033550;28;20216;-70
2022/09/18 02:45:23;;;;;;;2.40;0.70;;;;;;;9.64;nan;98126.47;5032877;28;20190;-70
2022/09/18 02:48:29;;;;;;;3.43;1.00;;;;;;;9.68;nan;98130.34;5033684;28;20200;-70
2022/09/18 02:51:07;;;;;;;3.80;0.90;;;;;;;9.67;nan;98128.69;5033083;28;20235;-70
2022/09/18 02:54:02;;;;;;;2.23;1.10;;;;;;;9.64;nan;98132.56;5033446;28;20289;-70
2022/09/18 02:56:43;;;;;;;1.97;0.73;;;;;;;9.66;nan;98141.16;5033579;28;20190;-70
2022/09/18 02:59:26;;;;;;;1.87;0.87;;;;;;;9.69;nan;98134.63;5033018;28;20194;-71
2022/09/18 03:01:55;;;;;;;1.80;0.70;;;;;;;9.67;nan;98137.47;5033266;28;20562;-70
2022/09/18 03:04:26;;;;;;;2.57;0.83;;;;;;;9.59;nan;98124.44;5032962;28;20225;-70
2022/09/18 03:06:53;;;;;;;2.60;0.97;;;;;;;9.72;nan;98120.91;5033228;28;20201;-70
2022/09/18 03:09:21;;;;;;;3.37;0.90;;;;;;;9.75;nan;98123.13;5033072;28;20202;-71
2022/09/18 03:11:48;;;;;;;2.70;0.80;;;;;;;9.67;nan;98120.72;5033364;28;20206;-70
2022/09/18 03:14:15;;;;;;;2.33;0.73;;;;;;;9.68;nan;98119.72;5033341;28;20206;-71
2022/09/18 03:16:41;;;;;;;1.40;0.87;;;;;;;9.62;nan;98133.81;5033141;28;20206;-71
2022/09/18 03:19:08;;;;;;;5.53;1.00;;;;;;;9.62;nan;98128.50;5033070;28;20206;-71
2022/09/18 03:21:34;;;;;;;1.53;0.80;;;;;;;9.68;nan;98122.38;5033172;28;20202;-71
2022/09/18 03:24:01;;;;;;;1.60;0.77;;;;;;;9.65;nan;98120.13;5033063;28;20230;-71
2022/09/18 03:26:27;;;;;;;1.83;0.90;;;;;;;9.64;nan;98118.50;5032742;28;20217;-71
2022/09/18 03:28:54;;;;;;;2.50;0.80;;;;;;;9.62;nan;98113.41;5032746;28;20688;-71
2022/09/18 03:31:20;;;;;;;2.20;1.10;;;;;;;9.59;nan;98120.97;5032527;28;20610;-71
2022/09/18 03:33:46;;;;;;;1.77;0.80;;;;;;;9.60;nan;98112.00;5032929;28;20197;-71
2022/09/18 03:36:13;;;;;;;1.00;0.70;;;;;;;9.63;nan;98106.25;5032971;28;20210;-71
2022/09/18 03:38:39;;;;;;;2.27;1.03;;;;;;;9.69;nan;98108.88;5032492;28;20210;-71
2022/09/18 03:41:07;;;;;;;2.57;1.10;;;;;;;9.64;nan;98107.88;5032706;28;20244;-71
2022/09/18 03:43:33;;;;;;;2.37;0.90;;;;;;;9.71;nan;98111.31;5032620;28;20230;-71
2022/09/18 03:46:00;;;;;;;2.20;1.00;;;;;;;9.63;nan;98108.88;5033283;28;20289;-71
2022/09/18 03:48:27;;;;;;;2.03;0.90;;;;;;;9.66;nan;98116.44;5032524;28;20567;-71
2022/09/18 03:50:53;;;;;;;2.10;0.77;;;;;;;9.62;nan;98112.56;5032750;28;20226;-71
2022/09/18 03:53:20;;;;;;;1.70;0.70;;;;;;;9.75;nan;98117.81;5032699;28;20202;-70
2022/09/18 03:55:49;;;;;;;1.27;0.70;;;;;;;9.69;nan;98118.69;5032468;28;20204;-71
2022/09/18 03:58:16;;;;;;;2.17;0.90;;;;;;;9.73;nan;98119.91;5034427;28;20665;-71
2022/09/18 04:00:42;;;;;;;3.00;0.90;;;;;;;9.71;nan;98124.59;5035988;28;20717;-71
2022/09/18 04:03:09;;;;;;;1.17;0.77;;;;;;;9.67;nan;98126.84;5036221;28;20208;-71
2022/09/18 04:05:35;;;;;;;1.80;0.80;;;;;;;9.67;nan;98126.84;5035840;28;20206;-71
2022/09/18 04:08:04;;;;;;;1.50;0.70;;;;;;;9.60;nan;98136.66;5036414;28;20215;-71
2022/09/18 04:10:30;;;;;;;2.90;1.17;;;;;;;9.65;nan;98136.06;5035659;28;20590;-71
2022/09/18 04:12:57;;;;;;;3.13;0.87;;;;;;;9.68;nan;98138.28;5036075;28;20214;-70
2022/09/18 04:15:23;;;;;;;3.13;1.00;;;;;;;9.63;nan;98141.56;5035979;28;20206;-71
2022/09/18 04:17:50;;;;;;;2.27;0.90;;;;;;;9.63;nan;98130.13;5035963;28;20213;-71
2022/09/18 04:20:16;;;;;;;2.23;1.00;;;;;;;9.63;nan;98138.09;5035854;28;20229;-71
2022/09/18 04:22:42;;;;;;;1.53;0.80;;;;;;;9.66;nan;98135.84;5035777;28;20206;-71
2022/09/18 04:25:09;;;;;;;1.47;0.90;;;;;;;9.66;nan;98132.38;5035782;28;20225;-71
2022/09/18 04:27:36;;;;;;;2.73;1.00;;;;;;;9.69;nan;98134.63;5035879;28;20215;-71
2022/09/18 04:30:03;;;;;;;1.67;0.80;;;;;;;9.67;nan;98139.31;5035311;28;20238;-71
2022/09/18 04:32:29;;;;;;;1.60;0.93;;;;;;;9.63;nan;98138.91;5035735;28;20213;-71
2022/09/18 04:34:55;;;;;;;2.37;0.83;;;;;;;9.65;nan;98128.09;5035217;28;20209;-71
2022/09/18 04:37:22;;;;;;;1.73;0.70;;;;;;;9.63;nan;98127.47;5035371;28;20783;-71
2022/09/18 04:39:48;;;;;;;2.60;0.80;;;;;;;9.62;nan;98129.34;5035210;28;20708;-71
2022/09/18 04:42:14;;;;;;;2.90;0.93;;;;;;;9.66;nan;98141.16;5035142;28;20622;-71
2022/09/18 04:44:41;;;;;;;3.47;1.20;;;;;;;9.64;nan;98131.78;5035268;28;20808;-71
2022/09/18 04:47:07;;;;;;;2.80;1.43;;;;;;;9.62;nan;98125.84;5035419;28;20297;-71
2022/09/18 04:49:33;;;;;;;4.30;0.90;;;;;;;9.61;nan;98126.88;5035268;28;20221;-71
2022/09/18 04:52:00;;;;;;;2.43;0.90;;;;;;;9.65;nan;98139.50;5035288;28;20206;-71
2022/09/18 04:54:26;;;;;;;3.57;0.77;;;;;;;9.63;nan;98136.25;5035513;28;20204;-71
2022/09/18 04:56:53;;;;;;;1.80;0.80;;;;;;;9.68;nan;98128.47;5035278;28;20571;-71
2022/09/18 04:59:20;;;;;;;1.77;0.90;;;;;;;9.64;nan;98139.75;5035173;28;20232;-70
2022/09/18 05:01:46;;;;;;;1.70;0.90;;;;;;;9.65;nan;98123.56;5035254;28;20206;-71
2022/09/18 05:04:12;;;;;;;3.47;1.17;;;;;;;9.69;nan;98130.09;5035054;28;20240;-71
2022/09/18 05:06:39;;;;;;;2.43;0.90;;;;;;;9.74;nan;98140.91;5034794;28;20213;-71
2022/09/18 05:09:05;;;;;;;2.30;1.10;;;;;;;9.76;nan;98140.69;5033953;28;20665;-71
2022/09/18 05:11:32;;;;;;;4.17;1.10;;;;;;;9.75;nan;98144.38;5034650;28;20688;-71
2022/09/18 05:13:58;;;;;;;2.47;0.93;;;;;;;9.81;nan;98144.34;5034525;28;20570;-71
2022/09/18 05:16:25;;;;;;;2.67;1.50;;;;;;;9.84;nan;98149.25;5034825;28;20555;-71
2022/09/18 05:18:52;;;;;;;3.13;0.93;;;;;;;9.82;nan;98145.97;5034790;28;20205;-71
2022/09/18 05:21:19;;;;;;;1.80;1.20;;;;;;;9.78;nan;98146.63;5034372;28;20230;-71
2022/09/18 05:23:46;;;;;;;2.40;1.27;;;;;;;9.75;nan;98149.69;5034625;28;20226;-70
2022/09/18 05:26:13;;;;;;;2.10;0.80;;;;;;;9.76;nan;98153.97;5034742;28;20209;-70
2022/09/18 05:28:40;;;;;;;6.37;1.20;;;;;;;9.75;nan;98149.69;5034346;28;20210;-70
2022/09/18 05:31:06;;;;;;;1.67;1.00;;;;;;;9.71;nan;98151.97;5034172;28;20236;-70
2022/09/18 05:33:33;;;;;;;2.87;1.30;;;;;;;9.75;nan;98157.66;5034571;28;20201;-70
2022/09/18 05:35:59;;;;;;;3.70;1.20;;;;;;;9.72;nan;98155.41;5034420;28;20206;-70
2022/09/18 05:38:26;;;;;;;2.17;1.10;;;;;;;9.73;nan;98151.75;5034873;28;20210;-70
2022/09/18 05:40:52;;;;;;;1.10;1.00;;;;;;;9.78;nan;98157.25;5034230;28;20236;-70
2022/09/18 05:43:19;;;;;;;4.20;1.10;;;;;;;9.75;nan;98162.97;5034349;28;20317;-71
2022/09/18 05:45:45;;;;;;;1.90;1.13;;;;;;;9.73;nan;98165.03;5033846;28;20236;-70
2022/09/18 05:48:12;;;;;;;2.60;1.00;;;;;;;9.68;nan;98178.13;5033789;28;20210;-70
2022/09/18 05:50:38;;;;;;;1.67;1.20;;;;;;;9.65;nan;98170.56;5034040;28;20236;-70
2022/09/18 05:53:07;;;;;;;1.50;0.93;;;;;;;9.70;nan;98170.75;5034143;28;20202;-70
2022/09/18 05:55:34;;;;;;;1.43;1.00;;;;;;;9.66;nan;98177.50;5034220;28;20293;-70
2022/09/18 05:58:02;;;;;;;4.10;1.07;;;;;;;9.70;nan;98173.41;5034103;28;20229;-71
2022/09/18 06:00:30;;;;;;;1.00;0.73;;;;;;;9.75;nan;98173.59;5034264;28;20232;-70
2022/09/18 06:03:05;;;;;;;3.40;1.07;;;;;;;9.66;nan;98173.00;5034075;28;20232;-70
2022/09/18 06:05:33;;;;;;;2.73;1.20;;;;;;;9.76;nan;98169.88;5033969;28;20216;-70
2022/09/18 06:08:05;;;;;;;3.70;1.20;;;;;;;9.70;nan;98189.31;5033936;28;20215;-70
2022/09/18 06:10:33;;;;;;;2.53;1.20;;;;;;;9.69;nan;98182.41;5033853;28;20312;-70
2022/09/18 06:13:04;;;;;;;2.40;1.20;;;;;;;9.74;nan;98183.38;5033524;28;20206;-70
2022/09/18 06:15:31;;;;;;;3.10;1.10;;;;;;;9.71;nan;98169.72;5033832;28;20533;-70
2022/09/18 06:17:58;;;;;;;2.23;1.20;;;;;;;9.68;nan;98183.44;5033734;28;20206;-70
2022/09/18 06:20:25;;;;;;;3.50;1.10;;;;;;;9.72;nan;98176.66;5032527;28;20720;-71
2022/09/18 06:22:51;;;;;;;4.53;1.37;;;;;;;9.68;nan;98181.56;5033647;28;20202;-71
2022/09/18 06:25:20;;;;;;;2.40;1.30;;;;;;;9.73;nan;98195.03;5033614;28;20229;-70
2022/09/18 06:27:49;;;;;;;2.27;1.03;;;;;;;9.74;nan;98186.03;5033589;28;20202;-71
2022/09/18 06:30:15;;;;;;;1.50;1.23;;;;;;;9.80;nan;98192.34;5033126;28;20743;-71
2022/09/18 06:32:42;;;;;;;2.63;0.97;;;;;;;9.76;nan;98197.28;5033623;28;20213;-70
2022/09/18 06:35:09;;;;;;;3.67;1.10;;;;;;;9.74;nan;98203.81;5033322;28;20573;-71
2022/09/18 06:37:35;;;;;;;2.13;1.30;;;;;;;9.78;nan;98191.75;5033483;28;20260;-71
2022/09/18 06:40:02;;;;;;;4.03;1.30;;;;;;;9.72;nan;98197.88;5033299;28;20312;-71
2022/09/18 06:42:28;;;;;;;1.70;1.13;;;;;;;9.74;nan;98199.31;5033887;28;20258;-71
2022/09/18 06:44:55;;;;;;;3.63;1.20;;;;;;;9.77;nan;98190.13;5033395;28;20226;-71
2022/09/18 06:47:21;;;;;;;8.00;1.67;;;;;;;9.73;nan;98186.25;5033410;28;20209;-70
2022/09/18 06:49:47;;;;;;;6.07;1.40;;;;;;;9.75;nan;98190.34;5033254;28;20222;-71
2022/09/18 06:52:14;;;;;;;4.13;1.50;;;;;;;9.78;nan;98181.94;5033341;28;20206;-71
2022/09/18 06:54:40;;;;;;;2.60;1.10;;;;;;;9.77;nan;98179.50;5033336;28;20204;-70
2022/09/18 06:57:07;;;;;;;2.93;1.20;;;;;;;9.73;nan;98180.94;5033227;28;20209;-70
2022/09/18 06:59:33;;;;;;;2.73;1.17;;;;;;;9.76;nan;98183.16;5033208;28;20222;-71
2022/09/18 07:02:00;;;;;;;3.80;1.50;;;;;;;9.77;nan;98190.13;5033086;28;20206;-71
2022/09/18 07:04:26;;;;;;;2.70;1.20;;;;;;;9.74;nan;98182.56;5033774;28;20221;-71
2022/09/18 07:06:52;;;;;;;3.23;1.53;;;;;;;9.83;nan;98190.06;5033936;28;20562;-70
2022/09/18 07:09:19;;;;;;;3.00;1.37;;;;;;;9.89;nan;98183.94;5032928;28;20202;-71
2022/09/18 07:11:45;;;;;;;2.83;1.50;;;;;;;9.96;nan;98184.72;5033090;28;20232;-70
2022/09/18 07:14:11;;;;;;;3.03;1.40;;;;;;;10.06;nan;98185.13;5033237;28;20209;-71
2022/09/18 07:16:38;;;;;;;2.53;1.33;;;;;;;10.07;nan;98184.09;5034019;28;20220;-70
2022/09/18 07:19:04;;;;;;;4.17;1.40;;;;;;;10.04;nan;98181.00;5033055;28;20205;-71
2022/09/18 07:21:31;;;;;;;2.20;1.10;;;;;;;10.05;nan;98175.50;5032663;28;20229;-71
2022/09/18 07:23:57;;;;;;;2.70;1.30;;;;;;;10.09;nan;98178.56;5032727;28;20546;-70
2022/09/18 07:26:24;;;;;;;2.10;1.23;;;;;;;10.02;nan;98183.88;5032690;28;20208;-70
2022/09/18 07:28:51;;;;;;;3.90;1.40;;;;;;;10.08;nan;98183.06;5032697;28;20217;-71
2022/09/18 07:31:18;;;;;;;1.97;1.27;;;;;;;10.19;nan;98189.53;5033077;28;20283;-70
2022/09/18 07:33:44;;;;;;;3.53;1.60;;;;;;;10.22;nan;98191.75;5036732;28;20216;-70
2022/09/18 07:36:11;;;;;;;7.73;1.60;;;;;;;10.29;nan;98192.53;5036677;28;20198;-71
2022/09/18 07:38:37;;;;;;;3.27;1.10;;;;;;;10.30;nan;98191.50;5036729;28;20206;-70
2022/09/18 07:41:04;;;;;;;3.27;1.57;;;;;;;10.27;nan;98195.41;5036508;28;20324;-70
2022/09/18 07:43:30;;;;;;;2.20;1.17;;;;;;;10.35;nan;98194.34;5036471;28;20206;-70
2022/09/18 07:45:57;;;;;;;2.80;1.33;;;;;;;10.41;nan;98188.19;5036097;28;20713;-70
2022/09/18 07:48:23;;;;;;;1.77;1.10;;;;;;;10.36;nan;98194.13;5036542;28;20309;-70
2022/09/18 07:50:49;;;;;;;3.17;1.20;;;;;;;10.46;nan;98193.66;5036481;28;20225;-71
2022/09/18 07:53:17;;;;;;;2.43;1.10;;;;;;;10.44;nan;98199.19;5036469;28;20232;-70
2022/09/18 07:55:46;;;;;;;3.10;1.17;;;;;;;10.51;nan;98199.94;5036488;28;20202;-71
2022/09/18 07:58:12;;;;;;;3.33;1.40;;;;;;;10.60;nan;98205.84;5036054;28;20213;-70
2022/09/18 08:00:39;;;;;;;1.77;1.20;;;;;;;10.52;nan;98200.78;5036338;28;20313;-71
2022/09/18 08:03:11;;;;;;;3.53;1.10;;;;;;;10.68;nan;98205.59;5036153;28;20214;-71
2022/09/18 08:05:39;;;;;;;4.30;1.07;;;;;;;10.71;nan;98202.47;5035869;28;20252;-70
2022/09/18 08:08:07;;;;;;;4.50;1.17;;;;;;;10.80;nan;98207.31;5036219;28;20209;-70
2022/09/18 08:10:34;;;;;;;1.87;0.80;;;;;;;10.80;nan;98211.81;5036101;28;20276;-71
2022/09/18 08:13:02;;;;;;;3.27;1.20;;;;;;;10.80;nan;98206.50;5036122;28;20209;-71
2022/09/18 08:15:30;;;;;;;1.67;1.10;;;;;;;10.92;nan;98212.75;5035947;28;20202;-71
2022/09/18 08:17:56;;;;;;;1.90;1.10;;;;;;;10.89;nan;98218.50;5035976;28;20583;-71
2022/09/18 08:20:23;;;;;;;2.57;1.00;;;;;;;10.73;nan;98216.38;5035812;28;20243;-71
2022/09/18 08:22:50;;;;;;;2.67;0.90;;;;;;;10.76;nan;98219.41;5035392;28;20734;-70
2022/09/18 08:25:17;;;;;;;3.43;1.00;;;;;;;10.69;nan;98220.50;5035677;28;20592;-71
2022/09/18 08:27:44;;;;;;;4.30;1.20;;;;;;;10.74;nan;98220.66;5035515;28;20661;-70
2022/09/18 08:30:14;;;;;;;2.47;1.10;;;;;;;10.74;nan;98221.50;5035375;28;20238;-70
2022/09/18 08:32:40;;;;;;;1.30;0.90;;;;;;;10.81;nan;98224.06;5035450;28;20577;-71
2022/09/18 08:35:07;;;;;;;2.43;1.10;;;;;;;10.98;nan;98224.38;5035404;28;20213;-70
2022/09/18 08:37:34;;;;;;;3.33;0.97;;;;;;;10.94;nan;98223.97;5035464;28;20558;-70
2022/09/18 08:40:00;;;;;;;3.73;1.20;;;;;;;10.98;nan;98227.84;5035541;28;20226;-71
2022/09/18 08:42:47;;;;;;;5.20;0.90;;;;;;;10.98;nan;98227.03;5035230;28;20210;-71
2022/09/18 08:45:17;;;;;;;4.37;1.10;;;;;;;11.09;nan;98227.16;5034965;28;20218;-70
2022/09/18 08:47:56;;;;;;;3.13;1.20;;;;;;;11.22;nan;98220.88;5035424;28;20208;-71
2022/09/18 08:50:26;;;;;;;3.33;1.10;;;;;;;11.36;nan;98223.22;5035540;28;20237;-71
2022/09/18 08:53:04;;;;;;;1.87;1.23;;;;;;;11.27;nan;98234.34;5035303;28;20578;-71
2022/09/18 08:55:36;;;;;;;2.07;1.13;;;;;;;11.27;nan;98221.88;5035256;28;20197;-71
2022/09/18 08:58:08;;;;;;;5.63;1.20;;;;;;;11.37;nan;98222.16;5035274;28;20191;-70
2022/09/18 09:00:40;;;;;;;2.67;1.30;;;;;;;11.26;nan;98238.84;5033803;28;20332;-70
2022/09/18 09:03:49;;;;;;;3.53;1.30;;;;;;;11.23;nan;98231.31;5034863;28;20618;-70
2022/09/18 09:06:45;;;;;;;1.93;1.27;;;;;;;11.23;nan;98230.50;5033463;28;20712;-70
2022/09/18 09:09:36;;;;;;;3.53;1.40;;;;;;;11.16;nan;98235.88;5034253;28;20194;-70
2022/09/18 09:12:30;;;;;;;3.33;1.50;;;;;;;11.10;nan;98234.09;5034657;28;20665;-70
2022/09/18 09:15:20;;;;;;;1.60;0.97;;;;;;;11.17;nan;98226.84;5034872;28;20197;-70
2022/09/18 09:18:15;;;;;;;2.87;1.30;;;;;;;11.15;nan;98231.59;5034858;28;20198;-71
2022/09/18 09:20:50;;;;;;;1.67;1.00;;;;;;;11.21;nan;98233.38;5033705;28;20230;-70
2022/09/18 09:23:53;;;;;;;3.40;1.53;;;;;;;11.29;nan;98230.44;5035301;28;20194;-70
2022/09/18 09:26:23;;;;;;;2.00;1.10;;;;;;;11.30;nan;98225.94;5034299;28;20234;-70
2022/09/18 09:28:59;;;;;;;1.97;1.17;;;;;;;11.26;nan;98236.19;5034545;28;20233;-70
2022/09/18 09:31:35;;;;;;;2.33;1.30;;;;;;;11.32;nan;98219.34;5034065;28;20233;-70
2022/09/18 09:34:21;;;;;;;3.23;1.40;;;;;;;11.41;nan;98230.53;5034530;28;20248;-70
2022/09/18 09:36:50;;;;;;;4.37;1.40;;;;;;;11.46;nan;98230.69;5034391;28;20196;-71
2022/09/18 09:39:35;;;;;;;3.70;1.10;;;;;;;11.43;nan;98229.28;5034330;28;20217;-70
2022/09/18 09:42:28;;;;;;;4.30;1.20;;;;;;;11.45;nan;98227.22;5034115;28;20212;-70
2022/09/18 09:45:02;;;;;;;2.37;1.10;;;;;;;11.48;nan;98223.31;5032618;28;20210;-70
2022/09/18 09:47:41;;;;;;;4.37;1.20;;;;;;;11.60;nan;98222.38;5032812;28;20642;-70
2022/09/18 09:50:33;;;;;;;1.83;1.00;;;;;;;11.64;nan;98212.91;5034189;28;20233;-71
2022/09/18 09:53:06;;;;;;;6.93;1.90;;;;;;;11.71;nan;98223.50;5033971;28;20717;-70
2022/09/18 09:55:52;;;;;;;4.97;1.40;;;;;;;11.70;nan;98216.53;5034168;28;20200;-70
2022/09/18 09:58:40;;;;;;;4.17;1.30;;;;;;;11.76;nan;98212.97;5033527;28;20191;-70
2022/09/18 10:01:13;;;;;;;3.00;1.10;;;;;;;11.77;nan;98211.94;5034054;28;20230;-71
2022/09/18 10:04:01;;;;;;;3.50;1.20;;;;;;;11.87;nan;98223.72;5034182;28;20197;-70
2022/09/18 10:06:45;;;;;;;6.87;1.53;;;;;;;11.95;nan;98210.09;5033697;28;20236;-70
2022/09/18 10:09:30;;;;;;;2.60;1.13;;;;;;;12.18;nan;98212.03;5033832;28;20191;-70
2022/09/18 10:12:28;;;;;;;3.60;1.10;;;;;;;12.28;nan;98221.13;5033741;28;20205;-70
2022/09/18 10:15:05;;;;;;;6.20;1.20;;;;;;;12.42;nan;98213.75;5024732;28;20226;-71
2022/09/18 10:17:37;;;;;;;4.97;1.50;;;;;;;12.44;nan;98219.69;5033768;28;20188;-71
2022/09/18 10:20:05;;;;;;;5.63;1.30;;;;;;;12.41;nan;98220.13;5033660;28;20285;-71
2022/09/18 10:22:33;;;;;;;2.43;1.03;;;;;;;12.50;nan;98214.28;5033419;28;20589;-70
2022/09/18 10:25:21;;;;;;;2.63;1.20;;;;;;;12.52;nan;98214.84;5033382;28;20231;-71
2022/09/18 10:27:48;;;;;;;2.57;1.00;;;;;;;12.55;nan;98209.06;5032298;28;20197;-71
2022/09/18 10:30:14;;;;;;;4.83;1.67;;;;;;;12.69;nan;98205.16;5033193;28;20246;-70
2022/09/18 10:32:41;;;;;;;5.70;1.20;;;;;;;12.74;nan;98207.13;5033354;28;20212;-71
2022/09/18 10:35:43;;;;;;;4.00;1.17;;;;;;;12.86;nan;98202.63;5032999;28;20215;-71
2022/09/18 10:38:36;;;;;;;3.53;1.07;;;;;;;12.80;nan;98206.22;5015392;28;20211;-71
2022/09/18 10:41:17;;;;;;;2.50;1.07;;;;;;;12.92;nan;98196.38;5033671;28;20224;-70
2022/09/18 10:44:29;;;;;;;4.63;1.10;;;;;;;13.05;nan;98198.84;5033165;28;20203;-70
2022/09/18 10:47:03;;;;;;;2.33;1.20;;;;;;;13.13;nan;98195.84;5030766;28;20243;-71
2022/09/18 10:49:33;;;;;;;2.70;1.20;;;;;;;13.21;nan;98195.50;5032809;28;20727;-70
2022/09/18 10:52:18;;;;;;;5.87;1.20;;;;;;;13.30;nan;98196.78;5034384;28;20218;-71
2022/09/18 10:55:04;;;;;;;2.63;1.23;;;;;;;13.45;nan;98195.28;5033255;28;20205;-70
2022/09/18 10:58:05;;;;;;;3.53;1.10;;;;;;;13.56;nan;98183.75;5028813;28;20744;-71
2022/09/18 11:00:36;;;;;;;2.50;0.90;;;;;;;13.58;nan;98187.03;5010310;28;20293;-71
2022/09/18 11:03:23;;;;;;;4.50;1.10;;;;;;;13.62;nan;98188.16;5033145;28;20195;-71
2022/09/18 11:05:58;;;;;;;2.27;1.10;;;;;;;13.76;nan;98175.38;5033020;28;20232;-71
2022/09/18 11:08:29;;;;;;;2.00;0.90;;;;;;;13.80;nan;98169.31;5037294;28;20565;-70
2022/09/18 11:11:08;;;;;;;3.43;1.07;;;;;;;13.86;nan;98173.72;5037055;28;20291;-71
2022/09/18 11:13:43;;;;;;;2.83;1.03;;;;;;;13.95;nan;98174.16;5036745;28;20209;-70
2022/09/18 11:16:10;;;;;;;3.37;0.97;;;;;;;13.97;nan;98170.19;5037117;28;20182;-71
2022/09/18 11:18:37;;;;;;;2.47;0.80;;;;;;;14.14;nan;98151.53;5036665;28;20214;-71
2022/09/18 11:21:07;;;;;;;2.37;0.83;;;;;;;14.01;nan;98168.66;5036796;28;20248;-70
2022/09/18 11:23:35;;;;;;;1.13;0.90;;;;;;;14.17;nan;98159.91;5036544;28;20210;-71
2022/09/18 11:26:19;;;;;;;3.23;1.00;;;;;;;14.16;nan;98157.47;5036718;28;20229;-70
2022/09/18 11:29:02;;;;;;;1.27;0.80;;;;;;;14.30;nan;98162.28;5036802;28;20201;-70
2022/09/18 11:31:40;;;;;;;5.50;1.27;;;;;;;14.26;nan;98161.19;5036227;28;20239;-71
2022/09/18 11:34:27;;;;;;;2.27;1.10;;;;;;;14.20;nan;98159.44;5036860;28;20528;-70
2022/09/18 11:36:58;;;;;;;3.63;1.47;;;;;;;14.52;nan;98155.22;5036564;28;20196;-70
2022/09/18 11:39:34;;;;;;;2.00;1.40;;;;;;;14.53;nan;98139.97;5035254;28;20729;-70
2022/09/18 11:42:01;;;;;;;3.57;1.10;;;;;;;14.66;nan;98147.69;5035196;28;20190;-71
2022/09/18 11:44:32;;;;;;;2.40;1.23;;;;;;;14.83;nan;98133.25;5036266;28;20210;-71
2022/09/18 11:47:17;;;;;;;3.60;0.87;;;;;;;14.67;nan;98128.72;5036509;28;20217;-70
2022/09/18 11:49:49;;;;;;;2.50;1.00;;;;;;;14.59;nan;98139.81;5036426;28;20225;-70
2022/09/18 11:52:29;;;;;;;4.10;0.90;;;;;;;14.41;nan;98123.16;5036414;28;20194;-71
2022/09/18 11:55:02;;;;;;;2.37;0.83;;;;;;;14.19;nan;98119.53;5036372;28;20259;-70
2022/09/18 11:57:51;;;;;;;1.07;0.90;;;;;;;14.07;nan;98126.81;5034925;28;20189;-71
2022/09/18 12:00:21;;;;;;;2.03;1.07;;;;;;;14.00;nan;98134.97;5036159;28;20246;-70
2022/09/18 12:02:52;;;;;;;2.17;0.83;;;;;;;14.02;nan;98134.75;5036076;28;20198;-71
2022/09/18 12:05:25;;;;;;;1.43;0.80;;;;;;;14.12;nan;98129.56;5036072;28;20194;-71
2022/09/18 12:07:56;;;;;;;2.07;0.90;;;;;;;14.18;nan;98118.75;5036276;28;20192;-70
2022/09/18 12:10:49;;;;;;;3.07;1.20;;;;;;;14.14;nan;98125.63;5034654;28;20222;-70
2022/09/18 12:13:21;;;;;;;2.23;0.70;;;;;;;14.25;nan;98111.38;5036024;28;20200;-71
2022/09/18 12:15:58;;;;;;;1.57;0.87;;;;;;;14.53;nan;98108.69;5035522;28;20756;-71
2022/09/18 12:18:32;;;;;;;3.03;1.70;;;;;;;14.74;nan;98118.66;5035001;28;20190;-70
2022/09/18 12:21:04;;;;;;;2.17;0.80;;;;;;;14.54;nan;98102.28;5034483;28;20230;-71
2022/09/18 12:23:31;;;;;;;2.53;0.83;;;;;;;14.53;nan;98119.41;5035396;28;20548;-70